Here is the Quick Look data you requested

The Data originates at the National Weather Service, and is made available here by the UAlbany Department of Atmospheric and Environmental Sciences

Surface Observations

K1V4 250154Z AUTO 08/02 A3021 RMK AO1 SLP233 T00830017=
KBTV 250154Z 33007KT 10SM CLR 07/M01 A3024 RMK AO2 SLP243 T00671011=
KDDH 250154Z AUTO 00000KT 10SM CLR 12/03 A3015 RMK AO2 SLP209 T01220033=
KEFK 250155Z AUTO 35005KT 10SM CLR 05/M01 A3025 RMK AO2 T00451010=
KMPV 250151Z AUTO 00000KT 10SM CLR 07/02 A3026 RMK AO2 SLP254 T00670017=
KMVL 250154Z AUTO 35003KT 10SM CLR 05/01 A3025 RMK AO2 SLP250 T00500011=
KRUT 250156Z AUTO 01003KT 10SM CLR 07/01 A3020 RMK AO2 SLP250 T00670011 $=
KVSF 250154Z AUTO VRB04KT 10SM CLR 16/02 A3018 RMK AO2 SLP221 T01560017=